Time;durP1;ratioP1;P1;durP2;ratioP2;P2;SDS_P1;SDS_P2;PMS_P1;PMS_P2;Temp;Humidity;BMP_temperature;BMP_pressure;BME280_temperature;BME280_humidity;BME280_pressure;Samples;Min_cycle;Max_cycle;Signal;HPM_P1;HPM_P2
2022/01/16 00:05:05;;;;;;;;;;;;;;;-4.02;62.65;96103.72;5076353;28;1069;-48
2022/01/16 00:07:31;;;;;;;;;;;;;;;-4.14;63.45;96086.69;5076067;28;1216;-48
2022/01/16 00:09:57;;;;;;;;;;;;;;;-4.17;63.95;96087.66;5076546;28;1909;-47
2022/01/16 00:12:24;;;;;;;;;;;;;;;-4.24;64.13;96096.56;5076312;28;1037;-48
2022/01/16 00:14:51;;;;;;;;;;;;;;;-4.24;63.75;96104.41;5076457;28;973;-48
2022/01/16 00:17:19;;;;;;;;;;;;;;;-4.05;63.81;96111.66;5076068;28;1029;-48
2022/01/16 00:19:45;;;;;;;;;;;;;;;-4.01;64.38;96134.16;5075951;28;1861;-48
2022/01/16 00:22:14;;;;;;;;;;;;;;;-3.98;64.07;96155.00;5075825;28;1071;-47
2022/01/16 00:24:40;;;;;;;;;;;;;;;-4.13;62.81;96172.00;5075815;28;1888;-48
2022/01/16 00:27:07;;;;;;;;;;;;;;;-4.13;63.65;96204.19;5075975;28;1034;-48
2022/01/16 00:29:33;;;;;;;;;;;;;;;-4.28;63.66;96203.81;5075924;28;1045;-48
2022/01/16 00:32:00;;;;;;;;;;;;;;;-4.32;63.93;96124.69;5075775;28;1918;-48
2022/01/16 00:34:26;;;;;;;;;;;;;;;-4.53;63.95;96098.34;5075572;28;1088;-48
2022/01/16 00:36:52;;;;;;;;;;;;;;;-4.47;64.52;96143.44;5075895;28;1162;-48
2022/01/16 00:39:18;;;;;;;;;;;;;;;-4.25;64.55;96094.88;5075636;28;1055;-48
2022/01/16 00:41:44;;;;;;;;;;;;;;;-4.18;64.95;96007.56;5075578;28;1263;-48
2022/01/16 00:44:10;;;;;;;;;;;;;;;-4.27;64.79;96067.09;5075405;28;1041;-49
2022/01/16 00:46:36;;;;;;;;;;;;;;;-4.52;64.64;96029.56;5075861;28;970;-48
2022/01/16 00:49:02;;;;;;;;;;;;;;;-4.72;64.76;95948.44;5075337;28;1060;-47
2022/01/16 00:51:28;;;;;;;;;;;;;;;-4.51;64.14;95997.34;5075639;28;1995;-48
2022/01/16 00:53:54;;;;;;;;;;;;;;;-4.17;64.56;95985.78;5075271;28;1042;-48
2022/01/16 00:56:21;;;;;;;;;;;;;;;-4.14;63.95;95993.50;5075445;28;1020;-48
2022/01/16 00:58:47;;;;;;;;;;;;;;;-4.53;64.15;96027.84;5075022;28;1040;-47
2022/01/16 01:01:14;;;;;;;;;;;;;;;-4.47;64.66;96071.19;5075320;28;1044;-48
2022/01/16 01:03:40;;;;;;;;;;;;;;;-4.58;64.10;96066.28;5074149;28;1051;-48
2022/01/16 01:06:06;;;;;;;;;;;;;;;-4.68;64.25;96043.16;5075413;28;981;-48
2022/01/16 01:08:33;;;;;;;;;;;;;;;-4.77;64.74;96076.44;5075312;28;1044;-48
2022/01/16 01:11:02;;;;;;;;;;;;;;;-4.49;64.87;96099.09;5074285;28;1988;-47
2022/01/16 01:16:01;;;;;;;;;;;;;;;-4.67;64.62;96071.78;5074874;28;1041;-48
2022/01/16 01:18:28;;;;;;;;;;;;;;;-4.45;65.08;96079.81;5075087;28;1060;-48
2022/01/16 01:20:54;;;;;;;;;;;;;;;-4.36;63.99;96043.00;5075304;28;969;-47
2022/01/16 01:23:20;;;;;;;;;;;;;;;-4.44;63.38;96051.94;5075136;28;1040;-48
2022/01/16 01:25:47;;;;;;;;;;;;;;;-4.23;63.89;96076.53;5074936;28;970;-48
2022/01/16 01:28:13;;;;;;;;;;;;;;;-4.14;63.57;96089.28;5073659;28;1051;-49
2022/01/16 01:30:40;;;;;;;;;;;;;;;-4.43;63.78;96087.63;5074957;28;1914;-48
2022/01/16 01:33:06;;;;;;;;;;;;;;;-4.55;64.44;96096.69;5074968;28;985;-48
2022/01/16 01:35:38;;;;;;;;;;;;;;;-4.35;64.63;96083.00;5074446;28;1153;-48
2022/01/16 01:38:05;;;;;;;;;;;;;;;-4.29;64.97;96095.00;5075215;28;1045;-48
2022/01/16 01:40:31;;;;;;;;;;;;;;;-4.41;64.96;96086.66;5074166;28;1235;-48
2022/01/16 01:51:09;;;;;;;;;;;;;;;-4.65;65.81;96097.84;5073998;28;1976;-48
2022/01/16 01:53:36;;;;;;;;;;;;;;;-4.67;65.43;96116.16;5074292;28;984;-48
2022/01/16 01:56:03;;;;;;;;;;;;;;;-4.86;64.97;96128.88;5074356;28;970;-48
2022/01/16 01:58:29;;;;;;;;;;;;;;;-5.10;65.25;96122.63;5074099;28;993;-48
2022/01/16 02:00:55;;;;;;;;;;;;;;;-5.10;65.84;96114.81;5074064;28;965;-48
2022/01/16 02:03:42;;;;;;;;;;;;;;;-5.05;65.14;96112.91;5073990;28;1101;-48
2022/01/16 02:06:15;;;;;;;;;;;;;;;-5.27;65.94;96120.47;5073661;28;1730;-48
2022/01/16 02:08:42;;;;;;;;;;;;;;;-5.20;66.33;96116.78;5074187;28;1005;-48
2022/01/16 02:11:10;;;;;;;;;;;;;;;-5.00;65.97;96115.41;5073918;28;2254;-47
2022/01/16 02:13:47;;;;;;;;;;;;;;;-5.01;65.81;96121.50;5073564;28;1049;-48
2022/01/16 02:33:11;;;;;;;;;;;;;;;-5.56;67.03;96092.56;5073706;28;1119;-48
2022/01/16 02:35:34;;;;;;;;;;;;;;;-5.36;67.54;96087.69;5073208;28;1491;-48
2022/01/16 02:38:00;;;;;;;;;;;;;;;-5.21;66.09;96093.38;5073506;28;1086;-47
2022/01/16 02:40:28;;;;;;;;;;;;;;;-5.39;65.20;96081.69;5073077;28;1088;-47
2022/01/16 02:42:54;;;;;;;;;;;;;;;-5.50;66.99;96075.03;5073988;28;982;-47
2022/01/16 02:45:29;;;;;;;;;;;;;;;-5.56;66.09;96083.03;5073277;28;973;-48
2022/01/16 02:47:56;;;;;;;;;;;;;;;-5.49;66.87;96081.09;5073629;28;1033;-47
2022/01/16 02:50:22;;;;;;;;;;;;;;;-5.28;66.95;96071.81;5073007;28;1898;-47
2022/01/16 02:52:49;;;;;;;;;;;;;;;-5.07;65.35;96083.41;5073419;28;1859;-47
2022/01/16 02:55:15;;;;;;;;;;;;;;;-5.36;65.28;96079.88;5073374;28;1016;-48
2022/01/16 02:57:42;;;;;;;;;;;;;;;-5.56;66.96;96076.94;5073119;28;1036;-48
2022/01/16 03:00:08;;;;;;;;;;;;;;;-5.42;66.87;96076.59;5073377;28;1035;-47
2022/01/16 03:02:34;;;;;;;;;;;;;;;-5.33;66.45;96077.19;5073138;28;1045;-48
2022/01/16 03:05:00;;;;;;;;;;;;;;;-5.27;65.64;96075.28;5073206;28;1076;-47
2022/01/16 03:07:27;;;;;;;;;;;;;;;-5.42;65.61;96073.97;5073237;28;1059;-47
2022/01/16 03:10:22;;;;;;;;;;;;;;;-5.59;66.28;96067.47;5073068;28;1898;-47
2022/01/16 03:12:49;;;;;;;;;;;;;;;-5.43;66.80;96069.66;5073144;28;1043;-47
2022/01/16 03:15:17;;;;;;;;;;;;;;;-5.45;65.52;96076.66;5073216;28;1051;-48
2022/01/16 03:23:08;;;;;;;;;;;;;;;-5.24;66.18;96083.88;5073010;28;1045;-47
2022/01/16 03:25:34;;;;;;;;;;;;;;;-5.27;66.88;96080.50;5072788;28;1041;-48
2022/01/16 03:28:01;;;;;;;;;;;;;;;-5.18;66.66;96085.47;5076962;28;1137;-47
2022/01/16 03:30:26;;;;;;;;;;;;;;;-5.22;65.69;96087.28;5076911;28;1910;-48
2022/01/16 03:32:52;;;;;;;;;;;;;;;-5.61;66.02;96092.72;5077160;28;974;-48
2022/01/16 03:35:18;;;;;;;;;;;;;;;-6.01;66.80;96088.56;5077081;28;1157;-47
2022/01/16 03:37:44;;;;;;;;;;;;;;;-5.91;67.29;96094.34;5076828;28;1014;-48
2022/01/16 03:40:11;;;;;;;;;;;;;;;-5.75;67.21;96093.09;5076562;28;1093;-48
2022/01/16 03:42:38;;;;;;;;;;;;;;;-5.68;66.66;96097.22;5076520;28;969;-48
2022/01/16 03:45:05;;;;;;;;;;;;;;;-5.73;66.16;96111.25;5076975;28;992;-47
2022/01/16 03:47:31;;;;;;;;;;;;;;;-5.81;66.62;96110.59;5076602;28;1029;-47
2022/01/16 03:49:57;;;;;;;;;;;;;;;-5.61;66.64;96110.09;5076932;28;1907;-47
2022/01/16 03:52:23;;;;;;;;;;;;;;;-5.94;66.15;96120.47;5076435;28;1005;-47
2022/01/16 03:54:49;;;;;;;;;;;;;;;-6.16;67.45;96126.25;5076843;28;1016;-48
2022/01/16 03:57:15;;;;;;;;;;;;;;;-6.21;67.39;96125.47;5075929;28;1034;-47
2022/01/16 03:59:41;;;;;;;;;;;;;;;-6.19;67.64;96128.91;5076483;28;1037;-48
2022/01/16 04:02:07;;;;;;;;;;;;;;;-6.28;66.79;96131.72;5076407;28;977;-47
2022/01/16 04:04:33;;;;;;;;;;;;;;;-6.23;67.98;96129.88;5076392;28;1045;-47
2022/01/16 04:06:59;;;;;;;;;;;;;;;-6.33;67.02;96131.84;5076439;28;1044;-47
2022/01/16 04:09:26;;;;;;;;;;;;;;;-6.30;67.81;96139.59;5075220;28;1052;-48
2022/01/16 04:11:55;;;;;;;;;;;;;;;-6.18;67.54;96137.59;5075976;28;1937;-47
2022/01/16 04:17:06;;;;;;;;;;;;;;;-6.49;67.97;96140.88;5076019;28;1108;-47
2022/01/16 04:19:32;;;;;;;;;;;;;;;-6.24;68.11;96138.59;5076415;28;1035;-47
2022/01/16 04:21:58;;;;;;;;;;;;;;;-6.21;67.48;96146.31;5075811;28;1869;-47
2022/01/16 04:24:24;;;;;;;;;;;;;;;-6.49;67.34;96151.28;5076148;28;1044;-48
2022/01/16 04:26:50;;;;;;;;;;;;;;;-6.78;68.51;96160.56;5075964;28;1021;-47
2022/01/16 04:29:16;;;;;;;;;;;;;;;-6.68;68.45;96161.22;5075995;28;973;-48
2022/01/16 04:31:42;;;;;;;;;;;;;;;-6.53;67.96;96158.28;5075597;28;1905;-47
2022/01/16 04:34:08;;;;;;;;;;;;;;;-6.50;67.65;96163.44;5076051;28;981;-47
2022/01/16 04:36:34;;;;;;;;;;;;;;;-6.54;67.37;96159.19;5075784;28;1209;-48
2022/01/16 04:39:00;;;;;;;;;;;;;;;-6.78;68.29;96164.91;5075513;28;1024;-47
2022/01/16 04:44:11;;;;;;;;;;;;;;;-6.38;67.70;96161.47;5075901;28;1027;-47
2022/01/16 04:46:37;;;;;;;;;;;;;;;-6.21;67.58;96163.69;5075630;28;1043;-47
2022/01/16 04:49:03;;;;;;;;;;;;;;;-6.48;67.40;96158.22;5075771;28;1031;-48
2022/01/16 04:51:30;;;;;;;;;;;;;;;-6.45;67.73;96165.94;5075342;28;1914;-47
2022/01/16 04:53:56;;;;;;;;;;;;;;;-6.11;67.12;96160.84;5075616;28;962;-47
2022/01/16 04:56:22;;;;;;;;;;;;;;;-6.13;67.41;96157.41;5075689;28;1025;-47
2022/01/16 04:58:49;;;;;;;;;;;;;;;-6.23;67.23;96161.09;5074994;28;1029;-48
2022/01/16 05:01:15;;;;;;;;;;;;;;;-6.46;67.47;96164.22;5075424;28;1006;-48
2022/01/16 05:03:41;;;;;;;;;;;;;;;-6.39;68.36;96164.94;5075092;28;929;-47
2022/01/16 05:06:07;;;;;;;;;;;;;;;-6.33;68.08;96162.22;5075099;28;1033;-47
2022/01/16 05:08:33;;;;;;;;;;;;;;;-6.46;67.03;96168.59;5075328;28;973;-47
2022/01/16 05:10:59;;;;;;;;;;;;;;;-6.57;67.91;96164.44;5075481;28;1997;-48
2022/01/16 05:16:34;;;;;;;;;;;;;;;-6.54;67.49;96163.56;5075088;28;1024;-47
2022/01/16 05:19:00;;;;;;;;;;;;;;;-6.77;67.37;96169.22;5075123;28;1025;-47
2022/01/16 05:21:26;;;;;;;;;;;;;;;-6.80;68.58;96175.34;5075058;28;965;-47
2022/01/16 05:23:52;;;;;;;;;;;;;;;-6.70;69.02;96179.47;5075030;28;973;-47
2022/01/16 05:26:20;;;;;;;;;;;;;;;-6.60;67.97;96176.66;5074782;28;981;-47
2022/01/16 05:28:46;;;;;;;;;;;;;;;-6.73;67.78;96170.91;5074750;28;1040;-48
2022/01/16 05:31:12;;;;;;;;;;;;;;;-6.76;69.02;96178.75;5074509;28;1918;-48
2022/01/16 05:33:38;;;;;;;;;;;;;;;-6.82;67.59;96171.94;5074865;28;1133;-47
2022/01/16 05:36:05;;;;;;;;;;;;;;;-7.01;68.48;96168.84;5074775;28;1157;-47
2022/01/16 05:38:31;;;;;;;;;;;;;;;-7.03;69.16;96173.22;5074409;28;1042;-47
2022/01/16 05:40:56;;;;;;;;;;;;;;;-6.92;68.93;96176.47;5074379;28;1231;-47
2022/01/16 05:43:23;;;;;;;;;;;;;;;-6.99;69.10;96164.47;5074575;28;1060;-47
2022/01/16 05:45:49;;;;;;;;;;;;;;;-6.81;69.03;96176.25;5074635;28;1098;-47
2022/01/16 05:48:15;;;;;;;;;;;;;;;-6.82;68.05;96177.13;5073932;28;1097;-47
2022/01/16 05:50:41;;;;;;;;;;;;;;;-7.05;69.06;96190.59;5074048;28;1918;-47
2022/01/16 05:53:07;;;;;;;;;;;;;;;-7.08;68.66;96190.63;5072874;28;1096;-47
2022/01/16 05:55:36;;;;;;;;;;;;;;;-6.96;68.85;96194.72;5074360;28;1005;-48
2022/01/16 05:58:11;;;;;;;;;;;;;;;-6.64;68.75;96201.03;5073860;28;1191;-47
2022/01/16 06:00:38;;;;;;;;;;;;;;;-6.56;68.07;96202.59;5074177;28;1112;-48
2022/01/16 06:03:04;;;;;;;;;;;;;;;-6.82;68.04;96203.13;5073947;28;1045;-48
2022/01/16 06:05:30;;;;;;;;;;;;;;;-7.09;69.02;96209.75;5074247;28;989;-47
2022/01/16 06:07:59;;;;;;;;;;;;;;;-6.83;69.21;96217.00;5073830;28;1200;-48
2022/01/16 06:10:26;;;;;;;;;;;;;;;-6.61;68.74;96211.41;5073991;28;1909;-48
2022/01/16 06:12:52;;;;;;;;;;;;;;;-6.54;68.40;96211.25;5073724;28;1112;-47
2022/01/16 06:15:18;;;;;;;;;;;;;;;-6.70;67.84;96215.88;5073744;28;1021;-47
2022/01/16 06:17:44;;;;;;;;;;;;;;;-6.92;68.44;96206.81;5074107;28;1013;-47
2022/01/16 06:20:10;;;;;;;;;;;;;;;-6.89;68.07;96214.53;5073530;28;1181;-47
2022/01/16 06:22:36;;;;;;;;;;;;;;;-6.75;67.88;96220.34;5074024;28;1021;-47
2022/01/16 06:25:02;;;;;;;;;;;;;;;-6.58;68.07;96222.59;5073658;28;1052;-47
2022/01/16 06:27:28;;;;;;;;;;;;;;;-6.59;67.88;96233.88;5072102;28;1044;-48
2022/01/16 06:29:54;;;;;;;;;;;;;;;-6.77;68.71;96229.91;5073605;28;2019;-47
2022/01/16 06:32:20;;;;;;;;;;;;;;;-6.61;68.44;96238.25;5073705;28;1047;-48
2022/01/16 06:34:46;;;;;;;;;;;;;;;-6.22;68.18;96245.25;5073638;28;1043;-47
2022/01/16 06:37:12;;;;;;;;;;;;;;;-4.52;63.07;96238.38;5073439;28;1150;-47
2022/01/16 06:39:38;;;;;;;;;;;;;;;-1.78;54.44;96250.22;5073323;28;1041;-48
2022/01/16 06:42:05;;;;;;;;;;;;;;;-0.30;49.83;96245.88;5073209;28;1159;-48
2022/01/16 06:44:31;;;;;;;;;;;;;;;1.13;46.56;96242.59;5073203;28;1041;-48
2022/01/16 06:46:57;;;;;;;;;;;;;;;3.11;41.93;96232.84;5073721;28;1171;-48
2022/01/16 06:49:23;;;;;;;;;;;;;;;3.85;39.71;96239.06;5073347;28;985;-48
2022/01/16 06:51:50;;;;;;;;;;;;;;;3.10;41.25;96234.66;5073385;28;1902;-48
2022/01/16 06:54:16;;;;;;;;;;;;;;;3.47;40.44;96247.50;5073510;28;969;-48
2022/01/16 06:56:42;;;;;;;;;;;;;;;4.92;37.87;96254.47;5073254;28;1049;-48
2022/01/16 06:59:08;;;;;;;;;;;;;;;7.18;33.90;96258.31;5072745;28;1135;-48
2022/01/16 07:01:34;;;;;;;;;;;;;;;9.74;30.50;96264.94;5072561;28;1064;-48
2022/01/16 07:04:00;;;;;;;;;;;;;;;11.45;27.61;96267.00;5073183;28;1049;-49
2022/01/16 07:06:26;;;;;;;;;;;;;;;11.51;26.97;96269.13;5073086;28;1108;-49
2022/01/16 07:08:52;;;;;;;;;;;;;;;8.25;30.81;96274.25;5073032;28;1053;-49
2022/01/16 07:11:18;;;;;;;;;;;;;;;7.40;33.24;96272.69;5073118;28;1906;-49
2022/01/16 07:13:44;;;;;;;;;;;;;;;7.86;32.47;96273.72;5072996;28;1014;-48
2022/01/16 07:16:10;;;;;;;;;;;;;;;8.62;31.48;96271.41;5073164;28;1071;-48
2022/01/16 07:18:36;;;;;;;;;;;;;;;7.69;31.99;96267.00;5073107;28;1997;-49
2022/01/16 07:21:02;;;;;;;;;;;;;;;7.30;33.04;96271.66;5072850;28;1096;-49
2022/01/16 07:23:28;;;;;;;;;;;;;;;9.11;30.94;96273.66;5073009;28;1032;-49
2022/01/16 07:25:54;;;;;;;;;;;;;;;10.51;28.96;96269.13;5072695;28;1057;-49
2022/01/16 07:28:20;;;;;;;;;;;;;;;10.25;28.80;96274.84;5072695;28;1045;-49
2022/01/16 07:30:47;;;;;;;;;;;;;;;10.78;28.18;96273.03;5072921;28;1975;-49
2022/01/16 07:33:13;;;;;;;;;;;;;;;10.59;28.19;96279.16;5073065;28;1036;-49
2022/01/16 07:35:39;;;;;;;;;;;;;;;10.33;28.03;96285.75;5072805;28;1145;-49
2022/01/16 07:38:06;;;;;;;;;;;;;;;9.32;29.82;96286.22;5073232;28;997;-49
2022/01/16 07:40:33;;;;;;;;;;;;;;;7.90;31.50;96283.16;5072584;28;1228;-49
2022/01/16 07:42:59;;;;;;;;;;;;;;;5.07;36.33;96279.97;5072780;28;1029;-49
2022/01/16 07:45:25;;;;;;;;;;;;;;;2.29;42.44;96278.81;5072532;28;1180;-48
2022/01/16 07:47:51;;;;;;;;;;;;;;;1.03;45.97;96280.03;5072752;28;1141;-48
2022/01/16 07:50:17;;;;;;;;;;;;;;;0.13;47.80;96297.41;5072579;28;1906;-48
2022/01/16 07:52:43;;;;;;;;;;;;;;;-0.40;49.31;96296.22;5073027;28;981;-48
2022/01/16 07:55:10;;;;;;;;;;;;;;;-0.87;50.67;96296.44;5072414;28;1061;-48
2022/01/16 07:57:36;;;;;;;;;;;;;;;-0.86;52.24;96287.63;5072674;28;1005;-48
2022/01/16 08:00:03;;;;;;;;;;;;;;;-1.07;52.48;96286.75;5072496;28;1038;-48
2022/01/16 08:02:29;;;;;;;;;;;;;;;-0.99;53.49;96286.44;5072887;28;1029;-48
2022/01/16 08:04:55;;;;;;;;;;;;;;;-1.12;54.15;96272.97;5072767;28;945;-48
2022/01/16 08:07:21;;;;;;;;;;;;;;;-0.99;54.36;96276.81;5072585;28;978;-48
2022/01/16 08:09:47;;;;;;;;;;;;;;;-0.93;54.45;96269.56;5072554;28;1044;-48
2022/01/16 08:12:14;;;;;;;;;;;;;;;-0.84;53.31;96277.91;5073295;28;1986;-48
2022/01/16 08:14:40;;;;;;;;;;;;;;;-0.78;53.53;96287.31;5076366;28;1008;-48
2022/01/16 08:17:06;;;;;;;;;;;;;;;-0.75;53.21;96278.47;5076320;28;1040;-48
2022/01/16 08:19:32;;;;;;;;;;;;;;;-0.67;52.60;96290.34;5076271;28;1021;-48
2022/01/16 08:21:58;;;;;;;;;;;;;;;-0.52;54.01;96288.84;5075906;28;1022;-48
2022/01/16 08:24:24;;;;;;;;;;;;;;;-0.29;53.35;96287.00;5076042;28;1117;-48
2022/01/16 08:26:51;;;;;;;;;;;;;;;-0.34;53.54;96276.69;5075882;28;1001;-48
2022/01/16 08:29:17;;;;;;;;;;;;;;;-0.32;52.46;96281.88;5075652;28;1072;-48
2022/01/16 08:31:43;;;;;;;;;;;;;;;-0.03;51.66;96291.09;5076016;28;1910;-48
2022/01/16 08:34:09;;;;;;;;;;;;;;;0.00;51.93;96285.72;5076034;28;1040;-48
2022/01/16 08:36:35;;;;;;;;;;;;;;;-0.09;52.66;96281.72;5075672;28;1166;-48
2022/01/16 08:39:01;;;;;;;;;;;;;;;-0.08;52.42;96269.41;5075956;28;1051;-47
2022/01/16 08:41:27;;;;;;;;;;;;;;;-0.18;53.16;96268.13;5075348;28;1247;-48
2022/01/16 08:43:53;;;;;;;;;;;;;;;0.04;51.57;96271.50;5075934;28;1036;-48
2022/01/16 08:46:20;;;;;;;;;;;;;;;0.10;52.12;96281.75;5075711;28;1021;-48
2022/01/16 08:48:47;;;;;;;;;;;;;;;0.07;51.40;96276.59;5075975;28;1040;-48
2022/01/16 08:51:13;;;;;;;;;;;;;;;0.27;50.80;96266.97;5075337;28;1914;-48
2022/01/16 08:53:39;;;;;;;;;;;;;;;0.34;51.44;96265.75;5075453;28;953;-48
2022/01/16 08:56:06;;;;;;;;;;;;;;;0.63;49.06;96267.03;5075282;28;977;-48
2022/01/16 08:58:32;;;;;;;;;;;;;;;0.67;49.67;96262.47;5075508;28;1047;-48
2022/01/16 09:00:58;;;;;;;;;;;;;;;0.72;49.32;96256.03;5075429;28;1020;-48
2022/01/16 09:03:24;;;;;;;;;;;;;;;0.96;49.51;96253.13;5075380;28;977;-48
2022/01/16 09:05:51;;;;;;;;;;;;;;;1.80;47.19;96257.69;5075212;28;993;-48
2022/01/16 09:08:18;;;;;;;;;;;;;;;3.34;44.41;96247.38;5075284;28;1047;-48
2022/01/16 09:10:44;;;;;;;;;;;;;;;5.18;41.43;96244.78;5074732;28;1926;-48
2022/01/16 09:13:12;;;;;;;;;;;;;;;6.38;38.88;96241.97;5075090;28;1093;-48
2022/01/16 09:15:38;;;;;;;;;;;;;;;7.85;35.70;96245.38;5075466;28;1016;-48
2022/01/16 09:18:05;;;;;;;;;;;;;;;9.73;32.47;96241.88;5074587;28;986;-48
2022/01/16 09:20:31;;;;;;;;;;;;;;;11.41;29.88;96236.13;5075042;28;1060;-49
2022/01/16 09:22:57;;;;;;;;;;;;;;;13.35;26.29;96235.75;5074968;28;961;-49
2022/01/16 09:25:23;;;;;;;;;;;;;;;13.73;25.85;96231.94;5074121;28;1005;-48
2022/01/16 09:27:50;;;;;;;;;;;;;;;12.59;27.78;96221.56;5074685;28;1016;-48
2022/01/16 09:30:16;;;;;;;;;;;;;;;12.18;28.52;96221.03;5074639;28;1918;-49
2022/01/16 09:32:42;;;;;;;;;;;;;;;13.09;27.13;96221.19;5074931;28;1021;-49
2022/01/16 09:35:08;;;;;;;;;;;;;;;15.15;24.93;96212.81;5074690;28;1165;-49
2022/01/16 09:37:35;;;;;;;;;;;;;;;17.52;22.97;96212.69;5074850;28;929;-50
2022/01/16 09:40:01;;;;;;;;;;;;;;;19.56;20.52;96205.41;5074243;28;1979;-50
2022/01/16 09:42:27;;;;;;;;;;;;;;;20.26;19.82;96206.53;5074653;28;966;-49
2022/01/16 09:44:53;;;;;;;;;;;;;;;20.59;19.49;96197.84;5074704;28;973;-50
2022/01/16 09:47:20;;;;;;;;;;;;;;;21.09;19.08;96197.75;5074464;28;965;-49
2022/01/16 09:49:46;;;;;;;;;;;;;;;21.66;18.75;96203.84;5074410;28;1006;-52
2022/01/16 09:52:12;;;;;;;;;;;;;;;22.70;18.14;96206.06;5074272;28;1909;-49
2022/01/16 09:54:38;;;;;;;;;;;;;;;22.89;17.67;96193.44;5074448;28;1052;-49
2022/01/16 09:57:05;;;;;;;;;;;;;;;23.00;17.34;96198.25;5074386;28;1036;-49
2022/01/16 09:59:31;;;;;;;;;;;;;;;23.21;16.63;96198.22;5073978;28;1081;-49
2022/01/16 10:01:57;;;;;;;;;;;;;;;23.30;17.46;96189.59;5072839;28;1109;-50
2022/01/16 10:04:32;;;;;;;;;;;;;;;22.63;17.68;96191.59;5073945;28;1088;-49
2022/01/16 10:06:59;;;;;;;;;;;;;;;21.88;18.09;96188.22;5074084;28;1043;-49
2022/01/16 10:09:25;;;;;;;;;;;;;;;21.79;18.33;96184.84;5073178;28;973;-50
2022/01/16 10:11:59;;;;;;;;;;;;;;;21.96;18.09;96180.66;5073961;28;2034;-50
2022/01/16 10:14:29;;;;;;;;;;;;;;;22.57;17.68;96171.47;5074113;28;1040;-49
2022/01/16 10:16:55;;;;;;;;;;;;;;;22.22;17.87;96170.84;5073652;28;981;-49
2022/01/16 10:19:23;;;;;;;;;;;;;;;21.98;18.44;96166.84;5074077;28;969;-50
2022/01/16 10:21:49;;;;;;;;;;;;;;;20.20;19.51;96169.31;5073573;28;1111;-48
2022/01/16 10:24:16;;;;;;;;;;;;;;;17.12;22.93;96161.38;5073844;28;1234;-49
2022/01/16 10:26:43;;;;;;;;;;;;;;;12.90;27.72;96151.53;5073846;28;1075;-46
2022/01/16 10:29:14;;;;;;;;;;;;;;;10.66;31.66;96155.44;5073341;28;1025;-46
2022/01/16 10:31:40;;;;;;;;;;;;;;;10.30;32.87;96144.34;5073508;28;1970;-46
2022/01/16 10:34:21;;;;;;;;;;;;;;;10.91;32.16;96135.34;5073806;28;1036;-47
2022/01/16 10:36:47;;;;;;;;;;;;;;;14.10;28.24;96133.25;5073440;28;1146;-46
2022/01/16 10:39:13;;;;;;;;;;;;;;;18.20;23.03;96139.81;5073504;28;1045;-47
2022/01/16 10:41:39;;;;;;;;;;;;;;;20.39;21.10;96130.59;5073383;28;1093;-47
2022/01/16 10:44:33;;;;;;;;;;;;;;;21.40;19.20;96129.25;5073349;28;1041;-47
2022/01/16 10:47:19;;;;;;;;;;;;;;;21.05;19.43;96130.16;5070697;28;1820;-47
2022/01/16 10:49:57;;;;;;;;;;;;;;;19.54;20.63;96124.25;5073301;28;1212;-48
2022/01/16 10:52:22;;;;;;;;;;;;;;;15.72;25.11;96120.41;5073053;28;1911;-48
2022/01/16 10:54:48;;;;;;;;;;;;;;;12.86;28.67;96113.41;5073329;28;988;-47
2022/01/16 10:57:17;;;;;;;;;;;;;;;11.42;31.24;96117.31;5073044;28;1028;-47
2022/01/16 10:59:44;;;;;;;;;;;;;;;10.15;32.82;96109.09;5073582;28;957;-47
2022/01/16 11:02:10;;;;;;;;;;;;;;;9.67;34.22;96109.72;5073266;28;1048;-49
2022/01/16 11:04:36;;;;;;;;;;;;;;;9.44;32.84;96094.81;5073301;28;1051;-49
2022/01/16 11:07:02;;;;;;;;;;;;;;;9.19;35.94;96103.09;5073527;28;985;-48
2022/01/16 11:09:29;;;;;;;;;;;;;;;9.06;35.34;96104.25;5072957;28;1008;-48
2022/01/16 11:12:02;;;;;;;;;;;;;;;9.07;35.99;96098.78;5073346;28;1983;-49
2022/01/16 11:14:28;;;;;;;;;;;;;;;8.87;36.30;96088.94;5072937;28;1065;-48
2022/01/16 11:16:55;;;;;;;;;;;;;;;8.69;36.69;96086.81;5073317;28;1036;-49
2022/01/16 11:19:23;;;;;;;;;;;;;;;8.61;37.34;96083.91;5073157;28;1048;-49
2022/01/16 11:22:03;;;;;;;;;;;;;;;8.43;37.88;96080.97;5073137;28;977;-48
2022/01/16 11:24:59;;;;;;;;;;;;;;;8.44;38.21;96079.97;5073002;28;1044;-48
2022/01/16 11:27:25;;;;;;;;;;;;;;;8.58;37.63;96081.53;5073076;28;1013;-49
2022/01/16 11:29:51;;;;;;;;;;;;;;;8.26;37.35;96073.47;5071713;28;1039;-48
2022/01/16 11:32:18;;;;;;;;;;;;;;;8.15;37.61;96069.00;5072859;28;1902;-48
2022/01/16 11:34:44;;;;;;;;;;;;;;;7.74;38.91;96062.47;5073034;28;1040;-48
2022/01/16 11:37:10;;;;;;;;;;;;;;;7.32;40.08;96059.56;5072624;28;1224;-48
2022/01/16 11:39:37;;;;;;;;;;;;;;;7.07;40.89;96057.94;5071670;28;1209;-49
2022/01/16 11:42:04;;;;;;;;;;;;;;;6.92;41.08;96054.63;5072794;28;1082;-49
2022/01/16 11:44:32;;;;;;;;;;;;;;;6.74;41.67;96057.72;5072742;28;1005;-51
2022/01/16 11:47:09;;;;;;;;;;;;;;;6.72;41.38;96051.69;5073310;28;1029;-48
2022/01/16 11:49:39;;;;;;;;;;;;;;;6.48;42.54;96041.06;5076529;28;1888;-58
2022/01/16 11:52:16;;;;;;;;;;;;;;;6.62;42.33;96037.38;5076841;28;2036;-48
2022/01/16 11:54:44;;;;;;;;;;;;;;;6.97;41.90;96042.69;5076754;28;1052;-49
2022/01/16 11:57:22;;;;;;;;;;;;;;;6.98;41.28;96032.91;5076400;28;1046;-50
2022/01/16 11:59:49;;;;;;;;;;;;;;;6.89;41.29;96038.94;5076327;28;1041;-49
2022/01/16 12:02:17;;;;;;;;;;;;;;;6.91;42.03;96035.19;5076312;28;1061;-49
2022/01/16 12:04:43;;;;;;;;;;;;;;;6.55;41.94;96030.84;5076509;28;993;-48
2022/01/16 12:07:12;;;;;;;;;;;;;;;6.44;41.88;96027.16;5076384;28;1029;-49
2022/01/16 12:09:40;;;;;;;;;;;;;;;6.54;42.14;96024.66;5076131;28;1073;-49
2022/01/16 12:12:12;;;;;;;;;;;;;;;6.63;42.03;96023.16;5076184;28;1990;-49
2022/01/16 12:14:57;;;;;;;;;;;;;;;6.49;42.79;96016.22;5076264;28;1018;-54
2022/01/16 12:17:29;;;;;;;;;;;;;;;6.54;42.31;96024.66;5076297;28;981;-47
2022/01/16 12:20:17;;;;;;;;;;;;;;;6.67;41.98;96019.28;5075908;28;1088;-49
2022/01/16 12:22:43;;;;;;;;;;;;;;;6.46;42.20;96021.75;5069419;28;1966;-50
2022/01/16 12:25:18;;;;;;;;;;;;;;;6.45;41.25;96017.41;5075661;28;1104;-49
2022/01/16 12:27:45;;;;;;;;;;;;;;;6.34;42.03;96006.75;5076118;28;997;-49
2022/01/16 12:30:32;;;;;;;;;;;;;;;6.19;42.68;96006.91;5075644;28;1914;-49
2022/01/16 12:32:59;;;;;;;;;;;;;;;6.12;43.48;96008.31;5075955;28;1085;-50
2022/01/16 12:35:40;;;;;;;;;;;;;;;6.18;42.57;95996.38;5075511;28;1889;-48
2022/01/16 12:38:11;;;;;;;;;;;;;;;6.03;42.89;95999.22;5076042;28;1020;-49
2022/01/16 12:40:38;;;;;;;;;;;;;;;6.19;42.60;96000.75;5075592;28;1108;-50
2022/01/16 12:43:08;;;;;;;;;;;;;;;6.15;42.81;95996.63;5075887;28;1040;-49
2022/01/16 12:45:38;;;;;;;;;;;;;;;6.10;43.46;95994.31;5075865;28;1059;-48
2022/01/16 12:48:05;;;;;;;;;;;;;;;6.29;42.85;95988.47;5075624;28;1025;-49
2022/01/16 12:50:32;;;;;;;;;;;;;;;6.22;42.82;95988.09;5075486;28;2000;-48
2022/01/16 12:52:58;;;;;;;;;;;;;;;6.25;43.41;95987.00;5075476;28;1048;-50
2022/01/16 12:55:30;;;;;;;;;;;;;;;6.19;43.39;95985.66;5075435;28;1024;-48
2022/01/16 12:58:16;;;;;;;;;;;;;;;6.07;43.10;95978.63;5075513;28;980;-48
2022/01/16 13:01:00;;;;;;;;;;;;;;;6.03;42.79;95977.13;5075190;28;1101;-48
2022/01/16 13:03:27;;;;;;;;;;;;;;;5.90;44.15;95979.81;5075305;28;1049;-49
2022/01/16 13:06:12;;;;;;;;;;;;;;;5.82;44.46;95979.50;5075188;28;1048;-49
2022/01/16 13:08:56;;;;;;;;;;;;;;;5.89;44.43;95975.44;5075238;28;1081;-49
2022/01/16 13:11:23;;;;;;;;;;;;;;;5.90;43.94;95973.63;5075165;28;1996;-49
2022/01/16 13:13:49;;;;;;;;;;;;;;;5.89;44.45;95964.00;5075158;28;1092;-49
2022/01/16 13:16:36;;;;;;;;;;;;;;;5.85;44.14;95969.53;5074891;28;1120;-49
2022/01/16 13:19:05;;;;;;;;;;;;;;;5.81;43.71;95968.06;5075079;28;1116;-49
2022/01/16 13:21:58;;;;;;;;;;;;;;;5.74;43.97;95966.81;5074685;28;1040;-49
2022/01/16 13:24:35;;;;;;;;;;;;;;;5.67;43.99;95968.19;5075271;28;1154;-49
2022/01/16 13:27:03;;;;;;;;;;;;;;;5.61;44.26;95966.00;5075079;28;970;-48
2022/01/16 13:29:30;;;;;;;;;;;;;;;5.62;44.33;95963.25;5074486;28;1053;-49
2022/01/16 13:31:57;;;;;;;;;;;;;;;5.64;44.09;95965.78;5074560;28;2100;-48
2022/01/16 13:34:35;;;;;;;;;;;;;;;5.65;44.57;95962.16;5075042;28;1028;-49
2022/01/16 13:37:02;;;;;;;;;;;;;;;5.56;44.93;95969.00;5074691;28;1158;-49
2022/01/16 13:39:32;;;;;;;;;;;;;;;5.57;45.50;95962.72;5074567;28;2010;-48
2022/01/16 13:42:11;;;;;;;;;;;;;;;5.61;45.08;95968.66;5074277;28;1283;-48
2022/01/16 13:44:36;;;;;;;;;;;;;;;5.62;44.50;95965.06;5074493;28;1191;-48
2022/01/16 13:47:03;;;;;;;;;;;;;;;5.66;43.74;95954.09;5074518;28;982;-48
2022/01/16 13:49:28;;;;;;;;;;;;;;;5.69;44.60;95958.31;5073476;28;1024;-49
2022/01/16 13:51:59;;;;;;;;;;;;;;;5.63;44.76;95956.13;5074322;28;1906;-48